Time;durP1;ratioP1;P1;durP2;ratioP2;P2;SDS_P1;SDS_P2;PMS_P1;PMS_P2;Temp;Humidity;BMP_temperature;BMP_pressure;BME280_temperature;BME280_humidity;BME280_pressure;Samples;Min_cycle;Max_cycle;Signal;HPM_P1;HPM_P2
2022/02/20 10:11:50;;;;;;;8.50;8.20;;;10.30;99.90;;;;;;5107005;27;21237;-76
2022/02/20 10:14:18;;;;;;;8.57;8.27;;;10.80;99.90;;;;;;5107920;28;20445;-76
2022/02/20 10:16:45;;;;;;;8.77;8.37;;;10.70;99.90;;;;;;5108137;28;20495;-76
2022/02/20 10:19:12;;;;;;;8.40;8.10;;;10.80;99.90;;;;;;5108078;28;20442;-76
2022/02/20 10:21:39;;;;;;;8.30;7.87;;;10.80;99.90;;;;;;5108242;28;20480;-75
2022/02/20 10:24:07;;;;;;;8.20;8.00;;;11.10;99.90;;;;;;5108170;28;20485;-75
2022/02/20 10:26:41;;;;;;;9.40;8.60;;;11.10;99.90;;;;;;5109337;28;20814;-76
2022/02/20 10:29:11;;;;;;;8.63;8.33;;;11.30;99.90;;;;;;5108701;28;20453;-75
2022/02/20 10:31:45;;;;;;;8.97;8.67;;;11.30;99.90;;;;;;5112404;28;20456;-75
2022/02/20 10:34:14;;;;;;;9.37;9.07;;;11.40;99.90;;;;;;5115729;28;20449;-76
2022/02/20 10:36:53;;;;;;;8.57;8.27;;;11.50;99.90;;;;;;5116362;28;20457;-75
2022/02/20 10:39:28;;;;;;;8.97;8.57;;;11.90;99.90;;;;;;5116846;28;20460;-74
2022/02/20 10:41:57;;;;;;;8.07;7.80;;;12.10;99.90;;;;;;5109446;28;20445;-74
2022/02/20 10:44:25;;;;;;;8.47;8.17;;;12.30;99.90;;;;;;5106756;28;20457;-76
2022/02/20 10:47:09;;;;;;;9.30;8.80;;;12.40;99.90;;;;;;5106547;28;20453;-74
2022/02/20 10:49:36;;;;;;;8.53;8.10;;;12.60;99.70;;;;;;5106634;28;20446;-74
2022/02/20 10:52:03;;;;;;;8.73;8.43;;;12.60;99.40;;;;;;5106795;28;20450;-74
2022/02/20 10:54:30;;;;;;;8.80;8.50;;;12.90;98.90;;;;;;5106875;28;20472;-74
2022/02/20 10:56:57;;;;;;;9.07;8.70;;;12.90;98.80;;;;;;5106446;28;20937;-76
2022/02/20 10:59:25;;;;;;;9.20;8.90;;;12.80;98.60;;;;;;5106554;28;20448;-77
2022/02/20 11:01:52;;;;;;;9.57;9.13;;;12.70;98.70;;;;;;5106273;28;20710;-76
2022/02/20 11:04:19;;;;;;;8.60;8.30;;;12.50;98.90;;;;;;5106558;28;20453;-77
2022/02/20 11:06:47;;;;;;;9.33;8.93;;;12.50;98.90;;;;;;5106713;28;20446;-77
2022/02/20 11:09:15;;;;;;;7.60;7.30;;;12.30;99.20;;;;;;5106653;28;20473;-76
2022/02/20 11:11:49;;;;;;;9.00;8.70;;;12.30;99.10;;;;;;5098534;28;20567;-76
2022/02/20 11:14:18;;;;;;;8.97;8.67;;;12.30;99.40;;;;;;5093151;28;20456;-77
2022/02/20 11:16:49;;;;;;;9.00;8.70;;;12.30;99.40;;;;;;5092746;28;20478;-76
2022/02/20 11:19:17;;;;;;;9.23;8.93;;;12.30;99.10;;;;;;5093083;28;20457;-75
2022/02/20 11:21:45;;;;;;;9.07;8.67;;;12.10;99.30;;;;;;5093080;28;20788;-76
2022/02/20 11:24:13;;;;;;;8.37;8.07;;;12.00;99.70;;;;;;5092602;28;20457;-76
2022/02/20 11:26:43;;;;;;;9.20;8.90;;;12.10;99.60;;;;;;5092414;28;20457;-75
2022/02/20 11:29:10;;;;;;;8.70;8.30;;;12.20;99.40;;;;;;5092379;28;20453;-76
2022/02/20 11:31:37;;;;;;;9.00;8.70;;;12.30;99.50;;;;;;5092283;28;20458;-76
2022/02/20 11:34:06;;;;;;;8.40;8.10;;;12.40;99.40;;;;;;5092195;28;20449;-76
2022/02/20 11:36:33;;;;;;;9.13;8.43;;;12.40;99.10;;;;;;5089005;28;20462;-76
2022/02/20 11:39:18;;;;;;;8.37;8.00;;;12.30;99.60;;;;;;5081465;28;20446;-76
2022/02/20 11:42:09;;;;;;;6.27;6.07;;;12.20;99.90;;;;;;5072106;28;21008;-75
2022/02/20 11:44:52;;;;;;;8.17;7.97;;;12.10;99.70;;;;;;5071920;28;20447;-75
2022/02/20 11:47:43;;;;;;;8.63;8.33;;;11.70;99.90;;;;;;5071871;28;20496;-75
2022/02/20 11:50:34;;;;;;;8.80;8.50;;;11.60;99.90;;;;;;5071798;28;20886;-76
2022/02/20 11:53:03;;;;;;;7.87;7.57;;;11.50;99.90;;;;;;5072086;28;20805;-76
2022/02/20 11:55:32;;;;;;;7.77;7.57;;;11.80;99.90;;;;;;5071932;28;20549;-76
2022/02/20 11:58:23;;;;;;;7.90;7.60;;;11.90;99.90;;;;;;5071995;28;20458;-76
2022/02/20 12:01:13;;;;;;;8.20;7.90;;;11.80;99.90;;;;;;5071474;28;20487;-76
2022/02/20 12:04:04;;;;;;;8.70;8.40;;;11.70;99.90;;;;;;5071420;28;20466;-76
2022/02/20 12:06:35;;;;;;;8.60;8.10;;;11.70;99.90;;;;;;5071695;28;20455;-76
2022/02/20 12:09:03;;;;;;;9.20;8.70;;;11.60;99.90;;;;;;5071611;28;20545;-76
2022/02/20 12:11:42;;;;;;;7.83;7.53;;;11.60;99.90;;;;;;5071257;28;20490;-76
2022/02/20 12:14:15;;;;;;;7.07;6.77;;;11.80;99.90;;;;;;5071249;28;20446;-75
2022/02/20 12:16:48;;;;;;;7.87;7.57;;;11.90;99.90;;;;;;5071132;28;20453;-76
2022/02/20 12:19:19;;;;;;;8.00;7.70;;;12.10;99.90;;;;;;5071437;28;20812;-74
2022/02/20 12:22:07;;;;;;;7.53;7.23;;;12.00;99.90;;;;;;5071382;28;20506;-77
2022/02/20 12:24:49;;;;;;;7.97;7.67;;;12.10;99.90;;;;;;5070096;28;20460;-76
2022/02/20 12:27:21;;;;;;;8.10;7.80;;;12.20;99.90;;;;;;5071160;28;20451;-76
2022/02/20 12:29:51;;;;;;;7.83;7.50;;;12.10;99.90;;;;;;5071099;28;20446;-76
2022/02/20 12:32:20;;;;;;;8.10;7.87;;;12.10;99.90;;;;;;5070855;28;20454;-76
2022/02/20 12:34:58;;;;;;;8.30;8.00;;;12.20;99.90;;;;;;5070975;28;20458;-74
2022/02/20 12:37:29;;;;;;;8.30;8.00;;;12.30;99.90;;;;;;5070737;28;20938;-74
2022/02/20 12:39:58;;;;;;;8.53;8.13;;;12.40;99.60;;;;;;5070523;28;20454;-75
2022/02/20 12:42:27;;;;;;;7.87;7.57;;;12.50;99.50;;;;;;5070648;28;20447;-74
2022/02/20 12:45:02;;;;;;;8.90;8.60;;;12.30;99.60;;;;;;5070525;28;20447;-74
2022/02/20 12:47:38;;;;;;;8.60;8.30;;;12.30;99.70;;;;;;5070692;28;20439;-74
2022/02/20 12:50:07;;;;;;;7.60;7.30;;;12.50;99.60;;;;;;5070379;28;20447;-74
2022/02/20 12:52:37;;;;;;;8.50;8.20;;;12.70;99.80;;;;;;5070451;28;20447;-76
2022/02/20 12:55:06;;;;;;;8.50;8.20;;;12.90;98.80;;;;;;5070615;28;20493;-75
2022/02/20 12:57:36;;;;;;;8.87;8.57;;;13.00;98.80;;;;;;5070525;28;20868;-76
2022/02/20 13:00:06;;;;;;;8.37;7.97;;;12.70;99.00;;;;;;5070227;28;20509;-75
2022/02/20 13:02:38;;;;;;;8.70;8.20;;;12.80;99.40;;;;;;5070238;28;20985;-75
2022/02/20 13:05:08;;;;;;;8.40;8.20;;;13.00;99.00;;;;;;5070438;28;20450;-75
2022/02/20 13:07:40;;;;;;;9.17;8.87;;;13.10;98.60;;;;;;5070119;28;20942;-74
2022/02/20 13:10:08;;;;;;;8.63;8.33;;;13.10;98.80;;;;;;5070069;28;20485;-75
2022/02/20 13:12:35;;;;;;;7.87;7.57;;;13.10;98.40;;;;;;5069960;28;20961;-76
2022/02/20 13:15:03;;;;;;;9.13;8.77;;;13.00;98.80;;;;;;5070292;28;20443;-76
2022/02/20 13:17:47;;;;;;;9.40;9.00;;;12.90;98.80;;;;;;5070239;28;20455;-75
2022/02/20 13:20:29;;;;;;;9.40;9.00;;;13.20;98.80;;;;;;5070155;28;20486;-75
2022/02/20 13:22:58;;;;;;;9.50;9.20;;;13.50;98.20;;;;;;5069945;28;20453;-75
2022/02/20 13:25:25;;;;;;;9.00;8.60;;;13.50;98.00;;;;;;5069762;28;20965;-76
2022/02/20 13:27:58;;;;;;;8.60;8.10;;;13.30;98.00;;;;;;5069960;28;20454;-75
2022/02/20 13:30:29;;;;;;;8.33;8.03;;;12.90;98.60;;;;;;5069788;28;20515;-76
2022/02/20 13:33:05;;;;;;;8.77;8.47;;;12.90;99.10;;;;;;5069898;28;20458;-76
2022/02/20 13:35:32;;;;;;;8.70;8.40;;;13.10;98.80;;;;;;5069614;28;20447;-76
2022/02/20 13:38:02;;;;;;;8.17;7.87;;;13.10;98.70;;;;;;5070039;28;20962;-76
2022/02/20 13:40:29;;;;;;;9.10;8.70;;;13.10;98.60;;;;;;5069954;28;20482;-76
2022/02/20 13:43:01;;;;;;;8.93;8.63;;;12.90;99.20;;;;;;5069699;28;20443;-76
2022/02/20 13:45:27;;;;;;;8.55;8.15;;;13.10;99.20;;;;;;5069648;28;20442;-75
2022/02/20 13:47:54;;;;;;;8.67;8.30;;;13.30;98.80;;;;;;5069483;28;20205;-75
2022/02/20 13:50:22;;;;;;;9.30;9.00;;;13.10;99.00;;;;;;5069631;28;20466;-75
2022/02/20 13:52:50;;;;;;;9.10;8.70;;;13.00;99.10;;;;;;5069670;28;20487;-75
2022/02/20 13:55:27;;;;;;;8.70;8.23;;;13.00;99.20;;;;;;5069895;28;20810;-75
2022/02/20 13:57:55;;;;;;;8.30;8.00;;;12.80;99.40;;;;;;5069624;28;20458;-75
2022/02/20 14:00:23;;;;;;;7.30;7.10;;;12.60;99.90;;;;;;5069499;28;20577;-75
2022/02/20 14:02:50;;;;;;;8.20;7.87;;;12.70;99.90;;;;;;5069363;28;20502;-75
2022/02/20 14:05:23;;;;;;;8.30;8.00;;;12.50;99.90;;;;;;5069653;28;20447;-75
2022/02/20 14:07:50;;;;;;;8.03;7.73;;;12.30;99.90;;;;;;5069621;28;20455;-74
2022/02/20 14:10:17;;;;;;;8.80;8.40;;;12.00;99.90;;;;;;5067729;28;20614;-75
2022/02/20 14:12:46;;;;;;;8.67;8.37;;;11.90;99.90;;;;;;5069629;28;20451;-75
2022/02/20 14:15:14;;;;;;;8.87;8.57;;;11.90;99.90;;;;;;5069530;28;20506;-74
2022/02/20 14:18:00;;;;;;;8.70;8.40;;;12.00;99.90;;;;;;5069355;28;20463;-75
2022/02/20 14:20:28;;;;;;;8.00;7.60;;;12.10;99.90;;;;;;5068806;28;20469;-76
2022/02/20 14:22:56;;;;;;;8.30;8.00;;;12.10;99.90;;;;;;5069328;28;20458;-75
2022/02/20 14:25:23;;;;;;;8.70;8.40;;;12.20;99.90;;;;;;5069419;28;20562;-76
2022/02/20 14:27:55;;;;;;;8.60;8.30;;;12.30;99.90;;;;;;5069347;28;20454;-76
2022/02/20 14:30:31;;;;;;;8.70;8.30;;;12.20;99.90;;;;;;5069443;28;20457;-75
2022/02/20 14:32:58;;;;;;;8.70;8.40;;;12.20;99.90;;;;;;5069429;28;20965;-76
2022/02/20 14:35:25;;;;;;;8.33;7.93;;;12.10;99.90;;;;;;5069493;28;20469;-76
2022/02/20 14:38:00;;;;;;;8.43;8.13;;;12.10;99.90;;;;;;5069392;28;20439;-75
2022/02/20 14:40:27;;;;;;;8.80;8.50;;;12.20;99.90;;;;;;5069485;28;20450;-76
2022/02/20 14:42:55;;;;;;;8.87;8.57;;;12.20;99.90;;;;;;5069204;28;20443;-77
2022/02/20 14:45:23;;;;;;;8.87;8.50;;;12.10;99.90;;;;;;5069196;28;20447;-76
2022/02/20 14:47:51;;;;;;;9.00;8.70;;;12.10;99.90;;;;;;5072070;28;20493;-75
2022/02/20 14:50:18;;;;;;;8.50;8.20;;;12.10;99.90;;;;;;5073065;28;20447;-76
2022/02/20 14:52:44;;;;;;;8.13;7.80;;;12.00;99.90;;;;;;5072966;28;20792;-75
2022/02/20 14:55:11;;;;;;;8.80;8.50;;;11.90;99.90;;;;;;5072645;28;20454;-75
2022/02/20 14:57:38;;;;;;;8.37;8.07;;;11.80;99.90;;;;;;5072635;28;20461;-76
2022/02/20 15:00:08;;;;;;;8.57;8.27;;;11.80;99.90;;;;;;5072633;28;20439;-76
2022/02/20 15:02:35;;;;;;;7.77;7.50;;;11.80;99.90;;;;;;5072374;28;20915;-75
2022/02/20 15:05:01;;;;;;;8.27;7.87;;;11.80;99.90;;;;;;5072785;28;20474;-76
2022/02/20 15:07:29;;;;;;;8.40;8.10;;;11.80;99.90;;;;;;5072678;28;20449;-76
2022/02/20 15:09:58;;;;;;;8.40;8.00;;;11.80;99.90;;;;;;5072312;28;20483;-76
2022/02/20 15:12:26;;;;;;;7.40;7.10;;;11.80;99.90;;;;;;5072381;28;20968;-76
2022/02/20 15:14:53;;;;;;;8.40;8.10;;;11.80;99.90;;;;;;5072548;28;21043;-76
2022/02/20 15:17:21;;;;;;;8.60;8.30;;;11.80;99.90;;;;;;5072324;28;20443;-76
2022/02/20 15:19:48;;;;;;;8.17;7.87;;;11.90;99.90;;;;;;5072746;28;20447;-76
2022/02/20 15:22:15;;;;;;;8.20;7.80;;;11.90;99.90;;;;;;5072733;28;20486;-75
2022/02/20 15:24:42;;;;;;;8.60;8.30;;;11.80;99.90;;;;;;5072292;28;20443;-73
2022/02/20 15:27:09;;;;;;;7.30;7.10;;;11.80;99.90;;;;;;5072118;28;20694;-76
2022/02/20 15:29:37;;;;;;;7.80;7.50;;;11.80;99.90;;;;;;5072209;28;20458;-76
2022/02/20 15:32:05;;;;;;;7.63;7.33;;;11.80;99.90;;;;;;5071962;28;20447;-76
2022/02/20 15:34:33;;;;;;;8.23;7.93;;;11.70;99.90;;;;;;5072402;28;20457;-77
2022/02/20 15:37:00;;;;;;;8.77;8.47;;;11.80;99.90;;;;;;5072228;28;20451;-76
2022/02/20 15:39:26;;;;;;;8.83;8.53;;;11.70;99.90;;;;;;5072178;28;20474;-77
2022/02/20 15:41:54;;;;;;;8.10;7.87;;;11.50;99.90;;;;;;5071921;28;20495;-76
2022/02/20 15:44:23;;;;;;;8.30;8.00;;;11.50;99.90;;;;;;5072071;28;20455;-76
2022/02/20 15:46:49;;;;;;;8.00;7.70;;;11.50;99.90;;;;;;5071923;28;20794;-77
2022/02/20 15:49:16;;;;;;;8.20;7.90;;;11.50;99.90;;;;;;5072493;28;20447;-76
2022/02/20 15:51:44;;;;;;;8.20;8.00;;;11.50;99.90;;;;;;5072209;28;20546;-78
2022/02/20 15:54:11;;;;;;;8.07;7.87;;;11.40;99.90;;;;;;5071913;28;20451;-77
2022/02/20 15:56:39;;;;;;;8.70;8.40;;;11.40;99.90;;;;;;5072138;28;20794;-77
2022/02/20 15:59:06;;;;;;;8.60;8.20;;;11.50;99.90;;;;;;5071944;28;20483;-77
2022/02/20 16:01:33;;;;;;;7.60;7.30;;;11.40;99.90;;;;;;5071398;28;21009;-76
2022/02/20 16:04:00;;;;;;;8.00;7.70;;;11.30;99.90;;;;;;5072273;28;20447;-76
2022/02/20 16:06:26;;;;;;;8.10;7.83;;;11.30;99.90;;;;;;5071724;28;20950;-76
2022/02/20 16:08:54;;;;;;;7.90;7.70;;;11.20;99.90;;;;;;5071754;28;20482;-75
2022/02/20 16:11:21;;;;;;;7.80;7.50;;;11.20;99.90;;;;;;5071343;28;20997;-75
2022/02/20 16:13:48;;;;;;;7.73;7.47;;;11.10;99.90;;;;;;5071574;28;20451;-75
2022/02/20 16:16:16;;;;;;;7.80;7.57;;;11.10;99.90;;;;;;5071659;28;20455;-75
2022/02/20 16:18:43;;;;;;;8.03;7.83;;;11.00;99.90;;;;;;5071488;28;20452;-74
2022/02/20 16:21:10;;;;;;;7.60;7.33;;;10.90;99.90;;;;;;5071329;28;20473;-74
2022/02/20 16:23:36;;;;;;;8.00;7.50;;;10.90;99.90;;;;;;5071222;28;20778;-76
2022/02/20 16:26:04;;;;;;;8.70;8.30;;;10.80;99.90;;;;;;5071385;28;20451;-76
2022/02/20 16:28:33;;;;;;;9.07;8.57;;;10.70;99.90;;;;;;5071243;28;20808;-75
2022/02/20 16:31:03;;;;;;;8.80;8.10;;;10.70;99.90;;;;;;5071029;28;20950;-75
2022/02/20 16:33:32;;;;;;;8.53;8.13;;;10.60;99.90;;;;;;5071405;28;20461;-75
2022/02/20 16:35:59;;;;;;;8.23;7.87;;;10.50;99.90;;;;;;5071205;28;20455;-75
2022/02/20 16:38:26;;;;;;;7.60;7.30;;;10.50;99.90;;;;;;5070993;28;20447;-76
2022/02/20 16:40:52;;;;;;;7.90;7.60;;;10.50;99.90;;;;;;5070875;28;20456;-75
2022/02/20 16:43:21;;;;;;;7.87;7.57;;;10.40;99.90;;;;;;5070823;28;20993;-75
2022/02/20 16:45:47;;;;;;;8.77;8.27;;;10.40;99.90;;;;;;5071027;28;20454;-75
2022/02/20 16:48:15;;;;;;;7.83;7.53;;;10.50;99.90;;;;;;5071018;28;20447;-75
2022/02/20 16:50:42;;;;;;;8.00;7.70;;;10.50;99.90;;;;;;5070942;28;20454;-75
2022/02/20 16:53:11;;;;;;;7.70;7.40;;;10.50;99.90;;;;;;5070597;28;20450;-76
2022/02/20 16:55:38;;;;;;;8.40;8.10;;;10.50;99.90;;;;;;5070882;28;20456;-76
2022/02/20 16:58:05;;;;;;;8.43;8.03;;;10.50;99.90;;;;;;5070319;28;20473;-75
2022/02/20 17:00:33;;;;;;;8.63;8.33;;;10.50;99.90;;;;;;5070488;28;20470;-74
2022/02/20 17:03:00;;;;;;;7.97;7.67;;;10.60;99.90;;;;;;5070415;28;21033;-74
2022/02/20 17:05:27;;;;;;;8.30;7.90;;;10.60;99.90;;;;;;5070403;28;21003;-75
2022/02/20 17:07:54;;;;;;;8.53;8.00;;;10.60;99.90;;;;;;5070341;28;20454;-75
2022/02/20 17:10:21;;;;;;;7.10;6.90;;;10.60;99.90;;;;;;5069456;28;20478;-76
2022/02/20 17:12:49;;;;;;;7.30;7.10;;;10.60;99.90;;;;;;5070126;28;20446;-75
2022/02/20 17:15:16;;;;;;;8.03;7.73;;;10.60;99.90;;;;;;5070552;28;20479;-75
2022/02/20 17:17:44;;;;;;;8.07;7.67;;;10.70;99.90;;;;;;5070146;28;20445;-74
2022/02/20 17:20:12;;;;;;;7.60;7.40;;;10.70;99.90;;;;;;5069986;28;20451;-75
2022/02/20 17:22:39;;;;;;;7.63;7.33;;;10.70;99.90;;;;;;5069819;28;20834;-75
2022/02/20 17:25:07;;;;;;;7.90;7.60;;;10.70;99.90;;;;;;5070169;28;20446;-74
2022/02/20 17:27:34;;;;;;;8.13;7.73;;;10.80;99.90;;;;;;5070026;28;20462;-75
2022/02/20 17:30:01;;;;;;;8.40;8.10;;;10.80;99.90;;;;;;5070447;28;20458;-74
2022/02/20 17:32:29;;;;;;;7.97;7.40;;;10.80;99.90;;;;;;5070019;28;20498;-75
2022/02/20 17:34:58;;;;;;;7.03;6.83;;;10.90;99.90;;;;;;5069775;28;20447;-74
2022/02/20 17:37:25;;;;;;;7.23;6.93;;;10.80;99.90;;;;;;5069952;28;20491;-74
2022/02/20 17:39:52;;;;;;;8.07;7.77;;;10.80;99.90;;;;;;5069885;28;20722;-74
2022/02/20 17:42:18;;;;;;;7.60;7.30;;;10.80;99.90;;;;;;5069778;28;21010;-74
2022/02/20 17:44:45;;;;;;;8.00;7.70;;;10.80;99.90;;;;;;5070082;28;20453;-76
2022/02/20 17:47:12;;;;;;;8.97;8.47;;;10.70;99.90;;;;;;5069688;28;20447;-75
2022/02/20 17:49:40;;;;;;;8.00;7.70;;;10.70;99.90;;;;;;5069543;28;20652;-76
2022/02/20 17:52:09;;;;;;;7.90;7.60;;;10.70;99.90;;;;;;5069567;28;21155;-75
2022/02/20 17:54:41;;;;;;;8.57;8.17;;;10.80;99.90;;;;;;5069566;28;20935;-75
2022/02/20 17:57:08;;;;;;;8.50;8.10;;;10.80;99.90;;;;;;5069633;28;20642;-74
